sensor_id;sensor_type;location;lat;lon;timestamp;P1;durP1;ratioP1;P2;durP2;ratioP2
31730;SDS011;18310;55.586;12.286;2023-04-24T00:00:41;17.30;;;11.00;;
31730;SDS011;18310;55.586;12.286;2023-04-24T00:03:46;14.32;;;9.32;;
31730;SDS011;18310;55.586;12.286;2023-04-24T00:06:50;13.63;;;8.70;;
31730;SDS011;18310;55.586;12.286;2023-04-24T00:09:57;14.75;;;9.10;;
31730;SDS011;18310;55.586;12.286;2023-04-24T00:13:00;12.75;;;8.75;;
31730;SDS011;18310;55.586;12.286;2023-04-24T00:16:03;16.05;;;9.45;;
31730;SDS011;18310;55.586;12.286;2023-04-24T00:19:07;14.20;;;8.85;;
31730;SDS011;18310;55.586;12.286;2023-04-24T00:22:10;15.00;;;9.10;;
31730;SDS011;18310;55.586;12.286;2023-04-24T00:25:16;15.25;;;9.48;;
31730;SDS011;18310;55.586;12.286;2023-04-24T00:28:19;17.05;;;9.77;;
31730;SDS011;18310;55.586;12.286;2023-04-24T00:31:22;14.10;;;9.17;;
31730;SDS011;18310;55.586;12.286;2023-04-24T00:34:26;12.32;;;9.25;;
31730;SDS011;18310;55.586;12.286;2023-04-24T00:37:29;13.30;;;9.57;;
31730;SDS011;18310;55.586;12.286;2023-04-24T00:40:34;14.77;;;9.38;;
31730;SDS011;18310;55.586;12.286;2023-04-24T00:43:37;14.45;;;8.73;;
31730;SDS011;18310;55.586;12.286;2023-04-24T00:46:41;14.07;;;9.10;;
31730;SDS011;18310;55.586;12.286;2023-04-24T00:52:48;14.43;;;8.07;;
31730;SDS011;18310;55.586;12.286;2023-04-24T00:55:53;15.55;;;9.55;;
31730;SDS011;18310;55.586;12.286;2023-04-24T00:58:56;14.13;;;8.75;;
31730;SDS011;18310;55.586;12.286;2023-04-24T01:02:00;15.95;;;9.20;;
31730;SDS011;18310;55.586;12.286;2023-04-24T01:05:04;14.18;;;9.10;;
31730;SDS011;18310;55.586;12.286;2023-04-24T01:08:08;15.25;;;9.05;;
31730;SDS011;18310;55.586;12.286;2023-04-24T01:11:13;12.53;;;7.90;;
31730;SDS011;18310;55.586;12.286;2023-04-24T01:14:16;13.32;;;6.95;;
31730;SDS011;18310;55.586;12.286;2023-04-24T01:17:19;10.25;;;7.00;;
31730;SDS011;18310;55.586;12.286;2023-04-24T01:20:22;9.10;;;6.47;;
31730;SDS011;18310;55.586;12.286;2023-04-24T01:23:29;8.93;;;5.60;;
31730;SDS011;18310;55.586;12.286;2023-04-24T01:26:32;10.98;;;5.18;;
31730;SDS011;18310;55.586;12.286;2023-04-24T01:29:36;8.43;;;4.60;;
31730;SDS011;18310;55.586;12.286;2023-04-24T01:32:39;8.00;;;4.63;;
31730;SDS011;18310;55.586;12.286;2023-04-24T01:35:45;7.10;;;4.68;;
31730;SDS011;18310;55.586;12.286;2023-04-24T01:38:50;10.50;;;5.33;;
31730;SDS011;18310;55.586;12.286;2023-04-24T01:41:53;10.43;;;6.13;;
31730;SDS011;18310;55.586;12.286;2023-04-24T01:44:57;14.23;;;5.97;;
31730;SDS011;18310;55.586;12.286;2023-04-24T01:48:00;9.82;;;6.47;;
31730;SDS011;18310;55.586;12.286;2023-04-24T01:51:04;13.25;;;6.50;;
31730;SDS011;18310;55.586;12.286;2023-04-24T01:54:08;12.80;;;7.07;;
31730;SDS011;18310;55.586;12.286;2023-04-24T01:57:11;10.43;;;6.47;;
31730;SDS011;18310;55.586;12.286;2023-04-24T02:00:16;13.68;;;8.07;;
31730;SDS011;18310;55.586;12.286;2023-04-24T02:03:19;12.98;;;7.68;;
31730;SDS011;18310;55.586;12.286;2023-04-24T02:06:22;10.98;;;7.70;;
31730;SDS011;18310;55.586;12.286;2023-04-24T02:09:27;10.57;;;6.97;;
31730;SDS011;18310;55.586;12.286;2023-04-24T02:12:30;10.10;;;6.15;;
31730;SDS011;18310;55.586;12.286;2023-04-24T02:15:33;9.95;;;6.22;;
31730;SDS011;18310;55.586;12.286;2023-04-24T02:18:37;13.15;;;7.03;;
31730;SDS011;18310;55.586;12.286;2023-04-24T02:21:40;11.35;;;6.50;;
31730;SDS011;18310;55.586;12.286;2023-04-24T02:24:44;11.38;;;6.55;;
31730;SDS011;18310;55.586;12.286;2023-04-24T02:27:48;13.38;;;7.20;;
31730;SDS011;18310;55.586;12.286;2023-04-24T02:30:51;10.65;;;7.18;;
31730;SDS011;18310;55.586;12.286;2023-04-24T02:33:54;11.82;;;6.97;;
31730;SDS011;18310;55.586;12.286;2023-04-24T02:36:57;12.07;;;7.63;;
31730;SDS011;18310;55.586;12.286;2023-04-24T02:40:02;13.07;;;8.25;;
31730;SDS011;18310;55.586;12.286;2023-04-24T02:43:07;13.68;;;8.02;;
31730;SDS011;18310;55.586;12.286;2023-04-24T02:46:11;15.70;;;7.88;;
31730;SDS011;18310;55.586;12.286;2023-04-24T02:49:14;13.63;;;7.20;;
31730;SDS011;18310;55.586;12.286;2023-04-24T02:52:17;15.98;;;8.95;;
31730;SDS011;18310;55.586;12.286;2023-04-24T02:55:21;12.25;;;7.18;;
31730;SDS011;18310;55.586;12.286;2023-04-24T02:58:24;14.40;;;8.55;;
31730;SDS011;18310;55.586;12.286;2023-04-24T03:01:27;16.38;;;9.68;;
31730;SDS011;18310;55.586;12.286;2023-04-24T03:04:31;19.00;;;10.85;;
31730;SDS011;18310;55.586;12.286;2023-04-24T03:07:35;16.38;;;10.32;;
31730;SDS011;18310;55.586;12.286;2023-04-24T03:10:39;16.63;;;10.57;;
31730;SDS011;18310;55.586;12.286;2023-04-24T03:13:42;16.48;;;11.07;;
31730;SDS011;18310;55.586;12.286;2023-04-24T03:16:45;18.58;;;10.90;;
31730;SDS011;18310;55.586;12.286;2023-04-24T03:19:48;16.20;;;11.10;;
31730;SDS011;18310;55.586;12.286;2023-04-24T03:22:51;17.23;;;11.30;;
31730;SDS011;18310;55.586;12.286;2023-04-24T03:25:56;17.38;;;11.20;;
31730;SDS011;18310;55.586;12.286;2023-04-24T03:28:59;17.85;;;10.75;;
31730;SDS011;18310;55.586;12.286;2023-04-24T03:32:02;20.95;;;11.20;;
31730;SDS011;18310;55.586;12.286;2023-04-24T03:35:05;22.13;;;10.40;;
31730;SDS011;18310;55.586;12.286;2023-04-24T03:38:09;16.63;;;10.05;;
31730;SDS011;18310;55.586;12.286;2023-04-24T03:41:14;15.65;;;9.82;;
31730;SDS011;18310;55.586;12.286;2023-04-24T03:44:17;19.20;;;10.77;;
31730;SDS011;18310;55.586;12.286;2023-04-24T03:47:20;19.48;;;11.43;;
31730;SDS011;18310;55.586;12.286;2023-04-24T03:50:23;17.70;;;11.60;;
31730;SDS011;18310;55.586;12.286;2023-04-24T03:53:28;20.35;;;12.02;;
31730;SDS011;18310;55.586;12.286;2023-04-24T03:56:32;19.80;;;12.27;;
31730;SDS011;18310;55.586;12.286;2023-04-24T03:59:36;23.10;;;13.77;;
31730;SDS011;18310;55.586;12.286;2023-04-24T04:02:39;20.38;;;14.35;;
31730;SDS011;18310;55.586;12.286;2023-04-24T04:05:42;20.95;;;13.63;;
31730;SDS011;18310;55.586;12.286;2023-04-24T04:08:45;22.75;;;15.20;;
31730;SDS011;18310;55.586;12.286;2023-04-24T04:11:49;23.30;;;14.50;;
31730;SDS011;18310;55.586;12.286;2023-04-24T04:14:52;19.77;;;12.52;;
31730;SDS011;18310;55.586;12.286;2023-04-24T04:17:55;24.65;;;13.30;;
31730;SDS011;18310;55.586;12.286;2023-04-24T04:20:58;23.08;;;13.60;;
31730;SDS011;18310;55.586;12.286;2023-04-24T04:24:02;21.73;;;13.32;;
31730;SDS011;18310;55.586;12.286;2023-04-24T04:27:08;21.85;;;13.27;;
31730;SDS011;18310;55.586;12.286;2023-04-24T04:30:12;20.63;;;12.23;;
31730;SDS011;18310;55.586;12.286;2023-04-24T04:33:15;21.67;;;12.20;;
31730;SDS011;18310;55.586;12.286;2023-04-24T04:36:18;21.55;;;12.30;;
31730;SDS011;18310;55.586;12.286;2023-04-24T04:39:21;21.70;;;12.60;;
31730;SDS011;18310;55.586;12.286;2023-04-24T04:42:26;23.73;;;13.70;;
31730;SDS011;18310;55.586;12.286;2023-04-24T04:45:29;22.25;;;13.38;;
31730;SDS011;18310;55.586;12.286;2023-04-24T04:48:34;24.15;;;14.10;;
31730;SDS011;18310;55.586;12.286;2023-04-24T04:51:37;27.63;;;16.08;;
31730;SDS011;18310;55.586;12.286;2023-04-24T04:54:43;26.77;;;14.73;;
31730;SDS011;18310;55.586;12.286;2023-04-24T05:01:11;27.50;;;14.27;;
31730;SDS011;18310;55.586;12.286;2023-04-24T05:04:15;33.53;;;15.02;;
31730;SDS011;18310;55.586;12.286;2023-04-24T05:07:18;22.27;;;13.20;;
31730;SDS011;18310;55.586;12.286;2023-04-24T05:10:22;23.20;;;12.02;;
31730;SDS011;18310;55.586;12.286;2023-04-24T05:13:25;24.40;;;12.65;;
31730;SDS011;18310;55.586;12.286;2023-04-24T05:16:42;20.65;;;11.13;;
31730;SDS011;18310;55.586;12.286;2023-04-24T05:19:45;20.63;;;11.93;;
31730;SDS011;18310;55.586;12.286;2023-04-24T05:22:48;19.75;;;11.70;;
31730;SDS011;18310;55.586;12.286;2023-04-24T05:25:51;20.98;;;12.60;;
31730;SDS011;18310;55.586;12.286;2023-04-24T05:29:11;24.02;;;12.18;;
31730;SDS011;18310;55.586;12.286;2023-04-24T05:32:15;20.77;;;13.10;;
31730;SDS011;18310;55.586;12.286;2023-04-24T06:31:07;15.55;;;8.80;;
31730;SDS011;18310;55.586;12.286;2023-04-24T06:34:10;15.80;;;8.27;;
31730;SDS011;18310;55.586;12.286;2023-04-24T06:37:13;16.02;;;7.75;;
31730;SDS011;18310;55.586;12.286;2023-04-24T06:40:17;12.85;;;8.43;;
31730;SDS011;18310;55.586;12.286;2023-04-24T06:43:21;22.50;;;9.47;;
31730;SDS011;18310;55.586;12.286;2023-04-24T06:46:25;19.60;;;9.15;;
31730;SDS011;18310;55.586;12.286;2023-04-24T06:49:29;14.20;;;8.70;;
31730;SDS011;18310;55.586;12.286;2023-04-24T06:52:32;13.68;;;8.38;;
31730;SDS011;18310;55.586;12.286;2023-04-24T06:58:39;12.90;;;8.23;;
31730;SDS011;18310;55.586;12.286;2023-04-24T07:01:44;17.02;;;8.18;;
31730;SDS011;18310;55.586;12.286;2023-04-24T07:04:47;20.52;;;8.18;;
31730;SDS011;18310;55.586;12.286;2023-04-24T07:07:50;13.75;;;7.72;;
31730;SDS011;18310;55.586;12.286;2023-04-24T07:10:54;16.83;;;7.47;;
31730;SDS011;18310;55.586;12.286;2023-04-24T07:13:58;17.30;;;7.63;;
31730;SDS011;18310;55.586;12.286;2023-04-24T07:17:03;14.40;;;6.87;;
31730;SDS011;18310;55.586;12.286;2023-04-24T07:20:07;16.02;;;6.57;;
31730;SDS011;18310;55.586;12.286;2023-04-24T07:23:12;15.75;;;6.88;;
31730;SDS011;18310;55.586;12.286;2023-04-24T07:26:15;13.53;;;6.43;;
31730;SDS011;18310;55.586;12.286;2023-04-24T07:29:18;10.15;;;5.80;;
31730;SDS011;18310;55.586;12.286;2023-04-24T07:35:27;13.75;;;5.95;;
31730;SDS011;18310;55.586;12.286;2023-04-24T07:38:30;12.57;;;5.23;;
31730;SDS011;18310;55.586;12.286;2023-04-24T07:41:33;11.63;;;5.93;;
31730;SDS011;18310;55.586;12.286;2023-04-24T07:44:36;9.38;;;5.45;;
31730;SDS011;18310;55.586;12.286;2023-04-24T07:47:41;11.30;;;5.30;;
31730;SDS011;18310;55.586;12.286;2023-04-24T07:50:47;8.15;;;4.53;;
31730;SDS011;18310;55.586;12.286;2023-04-24T07:53:50;6.40;;;4.47;;
31730;SDS011;18310;55.586;12.286;2023-04-24T07:56:53;13.75;;;4.95;;
31730;SDS011;18310;55.586;12.286;2023-04-24T07:59:56;11.52;;;4.97;;
31730;SDS011;18310;55.586;12.286;2023-04-24T08:11:11;8.25;;;4.40;;
31730;SDS011;18310;55.586;12.286;2023-04-24T08:14:14;9.63;;;4.05;;
31730;SDS011;18310;55.586;12.286;2023-04-24T08:17:18;9.87;;;4.47;;
31730;SDS011;18310;55.586;12.286;2023-04-24T08:20:21;7.22;;;3.92;;
31730;SDS011;18310;55.586;12.286;2023-04-24T08:23:24;7.10;;;4.30;;
31730;SDS011;18310;55.586;12.286;2023-04-24T08:26:28;8.75;;;4.22;;
31730;SDS011;18310;55.586;12.286;2023-04-24T08:29:32;12.18;;;3.95;;
31730;SDS011;18310;55.586;12.286;2023-04-24T08:32:35;10.70;;;4.05;;
31730;SDS011;18310;55.586;12.286;2023-04-24T08:35:39;7.10;;;4.13;;
31730;SDS011;18310;55.586;12.286;2023-04-24T08:38:42;7.57;;;3.73;;
31730;SDS011;18310;55.586;12.286;2023-04-24T08:41:49;8.07;;;3.58;;
31730;SDS011;18310;55.586;12.286;2023-04-24T08:44:55;4.70;;;2.88;;
31730;SDS011;18310;55.586;12.286;2023-04-24T08:47:59;7.60;;;3.35;;
31730;SDS011;18310;55.586;12.286;2023-04-24T08:51:03;7.80;;;3.42;;
31730;SDS011;18310;55.586;12.286;2023-04-24T08:54:11;6.82;;;3.22;;
31730;SDS011;18310;55.586;12.286;2023-04-24T08:57:17;7.43;;;2.70;;
31730;SDS011;18310;55.586;12.286;2023-04-24T09:00:21;8.18;;;3.17;;
31730;SDS011;18310;55.586;12.286;2023-04-24T09:03:25;6.32;;;3.05;;
31730;SDS011;18310;55.586;12.286;2023-04-24T09:06:30;6.93;;;2.53;;
31730;SDS011;18310;55.586;12.286;2023-04-24T09:09:34;6.85;;;2.53;;
31730;SDS011;18310;55.586;12.286;2023-04-24T09:12:40;6.97;;;2.88;;
31730;SDS011;18310;55.586;12.286;2023-04-24T09:15:44;9.18;;;3.17;;
31730;SDS011;18310;55.586;12.286;2023-04-24T09:18:47;8.77;;;2.60;;
31730;SDS011;18310;55.586;12.286;2023-04-24T09:21:50;7.80;;;2.70;;
31730;SDS011;18310;55.586;12.286;2023-04-24T09:24:59;10.98;;;2.65;;
31730;SDS011;18310;55.586;12.286;2023-04-24T09:28:07;12.15;;;2.80;;
31730;SDS011;18310;55.586;12.286;2023-04-24T09:31:11;10.82;;;2.97;;
31730;SDS011;18310;55.586;12.286;2023-04-24T09:34:20;7.28;;;2.88;;
31730;SDS011;18310;55.586;12.286;2023-04-24T09:37:27;13.13;;;3.35;;
31730;SDS011;18310;55.586;12.286;2023-04-24T09:40:31;8.50;;;3.08;;
31730;SDS011;18310;55.586;12.286;2023-04-24T09:43:38;8.27;;;2.85;;
31730;SDS011;18310;55.586;12.286;2023-04-24T09:46:43;8.35;;;2.83;;
31730;SDS011;18310;55.586;12.286;2023-04-24T09:49:47;7.90;;;2.90;;
31730;SDS011;18310;55.586;12.286;2023-04-24T09:52:55;10.47;;;3.00;;
31730;SDS011;18310;55.586;12.286;2023-04-24T09:56:06;7.93;;;2.92;;
31730;SDS011;18310;55.586;12.286;2023-04-24T09:59:12;10.75;;;3.58;;
31730;SDS011;18310;55.586;12.286;2023-04-24T10:02:16;6.85;;;3.08;;
31730;SDS011;18310;55.586;12.286;2023-04-24T10:05:22;9.02;;;3.15;;
31730;SDS011;18310;55.586;12.286;2023-04-24T10:08:26;12.60;;;2.80;;
31730;SDS011;18310;55.586;12.286;2023-04-24T10:11:35;6.55;;;2.75;;
31730;SDS011;18310;55.586;12.286;2023-04-24T10:14:40;8.85;;;3.38;;
31730;SDS011;18310;55.586;12.286;2023-04-24T10:17:45;7.55;;;2.85;;
31730;SDS011;18310;55.586;12.286;2023-04-24T10:20:53;11.43;;;3.80;;
31730;SDS011;18310;55.586;12.286;2023-04-24T10:23:57;11.13;;;3.97;;
31730;SDS011;18310;55.586;12.286;2023-04-24T10:27:01;13.57;;;4.25;;
31730;SDS011;18310;55.586;12.286;2023-04-24T10:30:08;9.80;;;3.20;;
31730;SDS011;18310;55.586;12.286;2023-04-24T10:33:14;9.18;;;3.55;;
31730;SDS011;18310;55.586;12.286;2023-04-24T10:39:24;7.03;;;3.42;;
31730;SDS011;18310;55.586;12.286;2023-04-24T10:42:29;8.90;;;3.22;;
31730;SDS011;18310;55.586;12.286;2023-04-24T10:45:34;9.50;;;3.77;;
31730;SDS011;18310;55.586;12.286;2023-04-24T10:48:41;6.60;;;3.15;;
31730;SDS011;18310;55.586;12.286;2023-04-24T10:51:46;11.35;;;3.45;;
31730;SDS011;18310;55.586;12.286;2023-04-24T10:54:51;10.18;;;3.10;;
31730;SDS011;18310;55.586;12.286;2023-04-24T10:58:01;7.80;;;3.17;;
31730;SDS011;18310;55.586;12.286;2023-04-24T11:01:07;12.95;;;3.47;;
31730;SDS011;18310;55.586;12.286;2023-04-24T11:04:10;10.75;;;3.65;;
31730;SDS011;18310;55.586;12.286;2023-04-24T11:07:13;9.43;;;3.80;;
31730;SDS011;18310;55.586;12.286;2023-04-24T11:10:24;8.18;;;4.30;;
31730;SDS011;18310;55.586;12.286;2023-04-24T11:17:07;5.93;;;3.45;;
31730;SDS011;18310;55.586;12.286;2023-04-24T11:20:10;6.28;;;3.35;;
31730;SDS011;18310;55.586;12.286;2023-04-24T11:23:35;9.47;;;4.30;;
31730;SDS011;18310;55.586;12.286;2023-04-24T11:26:38;9.77;;;4.03;;
31730;SDS011;18310;55.586;12.286;2023-04-24T11:29:45;10.38;;;3.35;;
31730;SDS011;18310;55.586;12.286;2023-04-24T11:32:52;8.30;;;3.40;;
31730;SDS011;18310;55.586;12.286;2023-04-24T11:35:55;10.15;;;3.30;;
31730;SDS011;18310;55.586;12.286;2023-04-24T11:38:58;12.00;;;4.27;;
31730;SDS011;18310;55.586;12.286;2023-04-24T11:42:02;8.63;;;4.00;;
31730;SDS011;18310;55.586;12.286;2023-04-24T11:45:08;7.57;;;3.33;;
31730;SDS011;18310;55.586;12.286;2023-04-24T11:48:19;9.45;;;4.05;;
31730;SDS011;18310;55.586;12.286;2023-04-24T11:51:25;9.70;;;4.18;;
31730;SDS011;18310;55.586;12.286;2023-04-24T11:54:37;9.27;;;4.15;;
31730;SDS011;18310;55.586;12.286;2023-04-24T12:00:39;7.18;;;3.97;;
31730;SDS011;18310;55.586;12.286;2023-04-24T12:03:46;7.95;;;3.38;;
31730;SDS011;18310;55.586;12.286;2023-04-24T12:07:00;8.52;;;3.85;;
31730;SDS011;18310;55.586;12.286;2023-04-24T12:10:27;10.38;;;4.43;;
31730;SDS011;18310;55.586;12.286;2023-04-24T12:13:33;8.75;;;4.30;;
31730;SDS011;18310;55.586;12.286;2023-04-24T12:16:36;11.35;;;4.32;;
31730;SDS011;18310;55.586;12.286;2023-04-24T12:19:44;8.15;;;3.95;;
31730;SDS011;18310;55.586;12.286;2023-04-24T12:22:48;8.68;;;3.58;;
31730;SDS011;18310;55.586;12.286;2023-04-24T12:25:59;9.07;;;4.35;;
31730;SDS011;18310;55.586;12.286;2023-04-24T12:29:03;10.52;;;4.57;;
31730;SDS011;18310;55.586;12.286;2023-04-24T12:32:15;6.65;;;3.53;;
31730;SDS011;18310;55.586;12.286;2023-04-24T12:35:19;8.18;;;3.97;;
31730;SDS011;18310;55.586;12.286;2023-04-24T12:38:26;6.47;;;3.72;;
31730;SDS011;18310;55.586;12.286;2023-04-24T12:41:33;8.02;;;3.97;;
31730;SDS011;18310;55.586;12.286;2023-04-24T12:44:36;7.07;;;3.10;;
31730;SDS011;18310;55.586;12.286;2023-04-24T12:47:40;7.27;;;3.50;;
31730;SDS011;18310;55.586;12.286;2023-04-24T12:50:44;4.75;;;3.25;;
31730;SDS011;18310;55.586;12.286;2023-04-24T12:53:48;9.60;;;3.53;;
31730;SDS011;18310;55.586;12.286;2023-04-24T12:56:53;4.53;;;3.27;;
31730;SDS011;18310;55.586;12.286;2023-04-24T12:59:58;8.55;;;3.60;;
31730;SDS011;18310;55.586;12.286;2023-04-24T13:03:02;6.32;;;3.35;;
31730;SDS011;18310;55.586;12.286;2023-04-24T13:06:06;5.40;;;2.95;;
31730;SDS011;18310;55.586;12.286;2023-04-24T13:09:09;6.30;;;3.67;;
31730;SDS011;18310;55.586;12.286;2023-04-24T13:12:14;5.10;;;2.90;;
31730;SDS011;18310;55.586;12.286;2023-04-24T13:15:17;5.53;;;3.05;;
31730;SDS011;18310;55.586;12.286;2023-04-24T13:18:21;4.03;;;2.80;;
31730;SDS011;18310;55.586;12.286;2023-04-24T13:21:24;6.53;;;2.80;;
31730;SDS011;18310;55.586;12.286;2023-04-24T13:24:28;6.65;;;2.88;;
31730;SDS011;18310;55.586;12.286;2023-04-24T13:27:32;4.60;;;2.50;;
31730;SDS011;18310;55.586;12.286;2023-04-24T13:30:37;6.18;;;3.13;;
31730;SDS011;18310;55.586;12.286;2023-04-24T13:33:41;7.95;;;2.75;;
31730;SDS011;18310;55.586;12.286;2023-04-24T13:36:45;5.60;;;2.70;;
31730;SDS011;18310;55.586;12.286;2023-04-24T13:39:49;5.72;;;2.63;;
31730;SDS011;18310;55.586;12.286;2023-04-24T13:45:57;4.80;;;2.65;;
31730;SDS011;18310;55.586;12.286;2023-04-24T13:49:03;4.22;;;2.25;;
31730;SDS011;18310;55.586;12.286;2023-04-24T13:52:07;3.73;;;1.77;;
31730;SDS011;18310;55.586;12.286;2023-04-24T13:55:12;3.17;;;1.80;;
31730;SDS011;18310;55.586;12.286;2023-04-24T13:58:17;4.05;;;2.17;;
31730;SDS011;18310;55.586;12.286;2023-04-24T14:01:40;4.45;;;1.85;;
31730;SDS011;18310;55.586;12.286;2023-04-24T14:04:43;4.60;;;1.67;;
31730;SDS011;18310;55.586;12.286;2023-04-24T14:07:47;4.93;;;2.30;;
31730;SDS011;18310;55.586;12.286;2023-04-24T14:10:50;5.57;;;1.80;;
31730;SDS011;18310;55.586;12.286;2023-04-24T14:13:54;4.47;;;2.13;;
31730;SDS011;18310;55.586;12.286;2023-04-24T14:17:00;4.28;;;2.22;;
31730;SDS011;18310;55.586;12.286;2023-04-24T14:20:04;8.98;;;2.10;;
31730;SDS011;18310;55.586;12.286;2023-04-24T14:23:08;4.15;;;2.17;;
31730;SDS011;18310;55.586;12.286;2023-04-24T14:26:11;6.68;;;2.47;;
31730;SDS011;18310;55.586;12.286;2023-04-24T14:29:14;4.68;;;2.78;;
31730;SDS011;18310;55.586;12.286;2023-04-24T14:32:19;3.70;;;2.53;;
31730;SDS011;18310;55.586;12.286;2023-04-24T14:35:22;4.28;;;2.25;;
31730;SDS011;18310;55.586;12.286;2023-04-24T14:38:26;5.13;;;2.92;;
31730;SDS011;18310;55.586;12.286;2023-04-24T14:41:29;3.88;;;2.20;;
31730;SDS011;18310;55.586;12.286;2023-04-24T14:44:33;4.32;;;2.20;;
31730;SDS011;18310;55.586;12.286;2023-04-24T14:47:37;3.92;;;2.65;;
31730;SDS011;18310;55.586;12.286;2023-04-24T14:50:41;5.78;;;2.40;;
31730;SDS011;18310;55.586;12.286;2023-04-24T14:53:44;3.42;;;2.22;;
31730;SDS011;18310;55.586;12.286;2023-04-24T14:56:48;4.80;;;2.40;;
31730;SDS011;18310;55.586;12.286;2023-04-24T14:59:52;4.43;;;2.45;;
31730;SDS011;18310;55.586;12.286;2023-04-24T15:02:57;4.33;;;2.97;;
31730;SDS011;18310;55.586;12.286;2023-04-24T15:06:00;4.47;;;2.72;;
31730;SDS011;18310;55.586;12.286;2023-04-24T15:09:04;4.60;;;2.73;;
31730;SDS011;18310;55.586;12.286;2023-04-24T15:12:07;4.88;;;3.00;;
31730;SDS011;18310;55.586;12.286;2023-04-24T15:15:11;6.50;;;2.97;;
31730;SDS011;18310;55.586;12.286;2023-04-24T15:18:16;4.97;;;2.85;;
31730;SDS011;18310;55.586;12.286;2023-04-24T15:21:19;4.80;;;2.88;;
31730;SDS011;18310;55.586;12.286;2023-04-24T15:24:22;5.07;;;2.85;;
31730;SDS011;18310;55.586;12.286;2023-04-24T15:27:26;4.70;;;2.67;;
31730;SDS011;18310;55.586;12.286;2023-04-24T15:30:29;3.92;;;2.72;;
31730;SDS011;18310;55.586;12.286;2023-04-24T15:33:33;5.43;;;3.10;;
31730;SDS011;18310;55.586;12.286;2023-04-24T15:36:37;4.32;;;3.03;;
31730;SDS011;18310;55.586;12.286;2023-04-24T15:39:40;5.32;;;3.35;;
31730;SDS011;18310;55.586;12.286;2023-04-24T15:42:43;5.75;;;2.80;;
31730;SDS011;18310;55.586;12.286;2023-04-24T15:45:46;8.50;;;3.20;;
31730;SDS011;18310;55.586;12.286;2023-04-24T15:48:53;4.75;;;2.70;;
31730;SDS011;18310;55.586;12.286;2023-04-24T15:51:56;3.70;;;2.55;;
31730;SDS011;18310;55.586;12.286;2023-04-24T15:54:59;4.43;;;2.75;;
31730;SDS011;18310;55.586;12.286;2023-04-24T15:58:02;5.35;;;2.80;;
31730;SDS011;18310;55.586;12.286;2023-04-24T16:01:06;6.77;;;2.90;;
31730;SDS011;18310;55.586;12.286;2023-04-24T16:04:10;6.60;;;3.08;;
31730;SDS011;18310;55.586;12.286;2023-04-24T16:07:14;5.47;;;3.05;;
31730;SDS011;18310;55.586;12.286;2023-04-24T16:10:18;5.72;;;3.20;;
31730;SDS011;18310;55.586;12.286;2023-04-24T16:13:22;3.50;;;2.47;;
31730;SDS011;18310;55.586;12.286;2023-04-24T16:19:30;3.80;;;2.80;;
31730;SDS011;18310;55.586;12.286;2023-04-24T16:22:34;5.72;;;2.65;;
31730;SDS011;18310;55.586;12.286;2023-04-24T16:25:37;4.90;;;2.78;;
31730;SDS011;18310;55.586;12.286;2023-04-24T16:28:40;4.57;;;2.58;;
31730;SDS011;18310;55.586;12.286;2023-04-24T16:31:44;4.45;;;2.67;;
31730;SDS011;18310;55.586;12.286;2023-04-24T16:34:49;4.27;;;2.60;;
31730;SDS011;18310;55.586;12.286;2023-04-24T16:37:52;3.40;;;2.30;;
31730;SDS011;18310;55.586;12.286;2023-04-24T16:40:55;6.72;;;2.95;;
31730;SDS011;18310;55.586;12.286;2023-04-24T16:43:58;4.43;;;2.67;;
31730;SDS011;18310;55.586;12.286;2023-04-24T16:47:01;4.18;;;2.65;;
31730;SDS011;18310;55.586;12.286;2023-04-24T16:50:06;4.80;;;2.40;;
31730;SDS011;18310;55.586;12.286;2023-04-24T16:53:10;5.85;;;2.45;;
31730;SDS011;18310;55.586;12.286;2023-04-24T16:56:14;5.63;;;2.60;;
31730;SDS011;18310;55.586;12.286;2023-04-24T16:59:17;5.40;;;2.30;;
31730;SDS011;18310;55.586;12.286;2023-04-24T17:02:20;4.13;;;2.40;;
31730;SDS011;18310;55.586;12.286;2023-04-24T17:05:24;4.13;;;2.65;;
31730;SDS011;18310;55.586;12.286;2023-04-24T17:08:27;4.47;;;2.83;;
31730;SDS011;18310;55.586;12.286;2023-04-24T17:11:33;4.35;;;2.63;;
31730;SDS011;18310;55.586;12.286;2023-04-24T17:14:37;6.97;;;2.88;;
31730;SDS011;18310;55.586;12.286;2023-04-24T17:17:40;5.57;;;2.38;;
31730;SDS011;18310;55.586;12.286;2023-04-24T17:20:46;4.63;;;2.95;;
31730;SDS011;18310;55.586;12.286;2023-04-24T17:23:49;6.00;;;2.72;;
31730;SDS011;18310;55.586;12.286;2023-04-24T17:26:52;4.97;;;3.03;;
31730;SDS011;18310;55.586;12.286;2023-04-24T17:30:09;5.63;;;3.17;;
31730;SDS011;18310;55.586;12.286;2023-04-24T17:36:17;7.93;;;2.83;;
31730;SDS011;18310;55.586;12.286;2023-04-24T17:39:21;7.40;;;3.55;;
31730;SDS011;18310;55.586;12.286;2023-04-24T17:42:24;6.97;;;3.40;;
31730;SDS011;18310;55.586;12.286;2023-04-24T17:45:27;6.18;;;2.80;;
31730;SDS011;18310;55.586;12.286;2023-04-24T17:48:30;7.25;;;3.38;;
31730;SDS011;18310;55.586;12.286;2023-04-24T17:51:35;6.15;;;3.67;;
31730;SDS011;18310;55.586;12.286;2023-04-24T17:54:38;5.85;;;3.92;;
31730;SDS011;18310;55.586;12.286;2023-04-24T17:57:41;6.45;;;3.30;;
31730;SDS011;18310;55.586;12.286;2023-04-24T18:00:44;6.55;;;4.03;;
31730;SDS011;18310;55.586;12.286;2023-04-24T18:03:47;10.95;;;5.03;;
31730;SDS011;18310;55.586;12.286;2023-04-24T18:06:52;10.67;;;5.43;;
31730;SDS011;18310;55.586;12.286;2023-04-24T18:09:55;8.07;;;5.40;;
31730;SDS011;18310;55.586;12.286;2023-04-24T18:12:58;14.43;;;5.95;;
31730;SDS011;18310;55.586;12.286;2023-04-24T18:16:01;10.18;;;5.85;;
31730;SDS011;18310;55.586;12.286;2023-04-24T18:19:04;10.20;;;5.60;;
31730;SDS011;18310;55.586;12.286;2023-04-24T18:22:09;11.07;;;5.85;;
31730;SDS011;18310;55.586;12.286;2023-04-24T18:25:12;14.52;;;5.60;;
31730;SDS011;18310;55.586;12.286;2023-04-24T18:28:16;12.45;;;5.95;;
31730;SDS011;18310;55.586;12.286;2023-04-24T18:31:19;8.27;;;5.43;;
31730;SDS011;18310;55.586;12.286;2023-04-24T18:34:22;8.55;;;6.13;;
31730;SDS011;18310;55.586;12.286;2023-04-24T18:37:27;11.13;;;7.40;;
31730;SDS011;18310;55.586;12.286;2023-04-24T18:40:33;11.80;;;7.90;;
31730;SDS011;18310;55.586;12.286;2023-04-24T18:43:36;13.38;;;7.90;;
31730;SDS011;18310;55.586;12.286;2023-04-24T18:46:39;14.53;;;9.73;;
31730;SDS011;18310;55.586;12.286;2023-04-24T18:49:43;12.63;;;8.68;;
31730;SDS011;18310;55.586;12.286;2023-04-24T18:53:06;11.55;;;7.55;;
31730;SDS011;18310;55.586;12.286;2023-04-24T18:56:10;13.20;;;8.90;;
31730;SDS011;18310;55.586;12.286;2023-04-24T18:59:13;12.30;;;8.60;;
31730;SDS011;18310;55.586;12.286;2023-04-24T19:02:16;10.00;;;7.00;;
31730;SDS011;18310;55.586;12.286;2023-04-24T19:05:20;10.73;;;8.03;;
31730;SDS011;18310;55.586;12.286;2023-04-24T19:08:24;10.27;;;7.18;;
31730;SDS011;18310;55.586;12.286;2023-04-24T19:11:28;8.98;;;6.25;;
31730;SDS011;18310;55.586;12.286;2023-04-24T19:14:31;7.57;;;5.47;;
31730;SDS011;18310;55.586;12.286;2023-04-24T19:17:34;6.80;;;4.70;;
31730;SDS011;18310;55.586;12.286;2023-04-24T19:20:38;6.10;;;4.60;;
31730;SDS011;18310;55.586;12.286;2023-04-24T19:23:42;5.47;;;4.38;;
31730;SDS011;18310;55.586;12.286;2023-04-24T19:26:46;8.90;;;4.78;;
31730;SDS011;18310;55.586;12.286;2023-04-24T19:29:49;7.45;;;4.95;;
31730;SDS011;18310;55.586;12.286;2023-04-24T19:32:52;5.72;;;4.30;;
31730;SDS011;18310;55.586;12.286;2023-04-24T19:35:56;6.80;;;4.18;;
31730;SDS011;18310;55.586;12.286;2023-04-24T19:39:00;5.55;;;3.90;;